sensor_id;sensor_type;location;lat;lon;timestamp;P1;durP1;ratioP1;P2;durP2;ratioP2
69057;SDS011;56128;37.534;-122.308;2024-03-17T00:00:37;3.22;;;1.10;;
69057;SDS011;56128;37.534;-122.308;2024-03-17T00:03:07;4.80;;;1.80;;
69057;SDS011;56128;37.534;-122.308;2024-03-17T00:05:37;5.68;;;1.30;;
69057;SDS011;56128;37.534;-122.308;2024-03-17T00:08:04;4.47;;;1.02;;
69057;SDS011;56128;37.534;-122.308;2024-03-17T00:10:33;6.35;;;1.42;;
69057;SDS011;56128;37.534;-122.308;2024-03-17T00:13:00;4.55;;;1.30;;
69057;SDS011;56128;37.534;-122.308;2024-03-17T00:15:26;3.15;;;1.15;;
69057;SDS011;56128;37.534;-122.308;2024-03-17T00:17:53;6.10;;;1.23;;
69057;SDS011;56128;37.534;-122.308;2024-03-17T00:20:19;2.83;;;1.10;;
69057;SDS011;56128;37.534;-122.308;2024-03-17T00:22:49;4.68;;;1.48;;
69057;SDS011;56128;37.534;-122.308;2024-03-17T00:25:18;8.37;;;1.63;;
69057;SDS011;56128;37.534;-122.308;2024-03-17T00:27:45;5.85;;;1.40;;
69057;SDS011;56128;37.534;-122.308;2024-03-17T00:30:13;5.53;;;1.40;;
69057;SDS011;56128;37.534;-122.308;2024-03-17T00:32:40;4.90;;;1.45;;
69057;SDS011;56128;37.534;-122.308;2024-03-17T00:35:07;6.35;;;1.65;;
69057;SDS011;56128;37.534;-122.308;2024-03-17T00:37:39;9.27;;;1.73;;
69057;SDS011;56128;37.534;-122.308;2024-03-17T00:40:05;7.00;;;1.30;;
69057;SDS011;56128;37.534;-122.308;2024-03-17T00:42:32;6.32;;;1.60;;
69057;SDS011;56128;37.534;-122.308;2024-03-17T00:44:58;5.45;;;1.45;;
69057;SDS011;56128;37.534;-122.308;2024-03-17T00:47:30;5.90;;;1.58;;
69057;SDS011;56128;37.534;-122.308;2024-03-17T00:49:57;8.68;;;2.05;;
69057;SDS011;56128;37.534;-122.308;2024-03-17T00:52:23;9.23;;;1.92;;
69057;SDS011;56128;37.534;-122.308;2024-03-17T00:54:49;10.20;;;1.90;;
69057;SDS011;56128;37.534;-122.308;2024-03-17T00:57:15;4.65;;;1.42;;
69057;SDS011;56128;37.534;-122.308;2024-03-17T00:59:44;7.25;;;1.63;;
69057;SDS011;56128;37.534;-122.308;2024-03-17T01:02:11;5.47;;;1.40;;
69057;SDS011;56128;37.534;-122.308;2024-03-17T01:04:41;9.07;;;1.67;;
69057;SDS011;56128;37.534;-122.308;2024-03-17T01:07:08;7.47;;;1.58;;
69057;SDS011;56128;37.534;-122.308;2024-03-17T01:09:36;7.35;;;1.80;;
69057;SDS011;56128;37.534;-122.308;2024-03-17T01:12:02;9.75;;;1.70;;
69057;SDS011;56128;37.534;-122.308;2024-03-17T01:14:29;6.90;;;1.90;;
69057;SDS011;56128;37.534;-122.308;2024-03-17T01:16:56;10.30;;;2.20;;
69057;SDS011;56128;37.534;-122.308;2024-03-17T01:19:24;9.55;;;1.73;;
69057;SDS011;56128;37.534;-122.308;2024-03-17T01:21:52;10.20;;;2.10;;
69057;SDS011;56128;37.534;-122.308;2024-03-17T01:24:18;6.28;;;2.63;;
69057;SDS011;56128;37.534;-122.308;2024-03-17T01:26:45;9.75;;;2.03;;
69057;SDS011;56128;37.534;-122.308;2024-03-17T01:29:12;11.00;;;2.10;;
69057;SDS011;56128;37.534;-122.308;2024-03-17T01:31:38;9.35;;;2.10;;
69057;SDS011;56128;37.534;-122.308;2024-03-17T01:34:05;5.70;;;1.80;;
69057;SDS011;56128;37.534;-122.308;2024-03-17T01:36:31;12.55;;;2.42;;
69057;SDS011;56128;37.534;-122.308;2024-03-17T01:39:01;9.75;;;2.38;;
69057;SDS011;56128;37.534;-122.308;2024-03-17T01:41:28;10.10;;;2.30;;
69057;SDS011;56128;37.534;-122.308;2024-03-17T01:43:55;11.85;;;2.40;;
69057;SDS011;56128;37.534;-122.308;2024-03-17T01:46:24;12.38;;;2.55;;
69057;SDS011;56128;37.534;-122.308;2024-03-17T01:48:50;14.98;;;2.83;;
69057;SDS011;56128;37.534;-122.308;2024-03-17T01:51:17;14.73;;;2.70;;
69057;SDS011;56128;37.534;-122.308;2024-03-17T01:53:47;10.43;;;2.30;;
69057;SDS011;56128;37.534;-122.308;2024-03-17T01:56:14;11.07;;;2.33;;
69057;SDS011;56128;37.534;-122.308;2024-03-17T01:58:43;10.43;;;2.33;;
69057;SDS011;56128;37.534;-122.308;2024-03-17T02:01:11;11.65;;;2.67;;
69057;SDS011;56128;37.534;-122.308;2024-03-17T02:03:41;8.75;;;2.30;;
69057;SDS011;56128;37.534;-122.308;2024-03-17T02:06:08;10.05;;;1.73;;
69057;SDS011;56128;37.534;-122.308;2024-03-17T02:08:47;9.20;;;2.13;;
69057;SDS011;56128;37.534;-122.308;2024-03-17T02:11:23;9.52;;;2.30;;
69057;SDS011;56128;37.534;-122.308;2024-03-17T02:13:52;8.60;;;1.98;;
69057;SDS011;56128;37.534;-122.308;2024-03-17T02:16:19;9.18;;;2.22;;
69057;SDS011;56128;37.534;-122.308;2024-03-17T02:18:46;10.50;;;2.80;;
69057;SDS011;56128;37.534;-122.308;2024-03-17T02:21:13;13.35;;;2.50;;
69057;SDS011;56128;37.534;-122.308;2024-03-17T02:23:41;13.50;;;2.75;;
69057;SDS011;56128;37.534;-122.308;2024-03-17T02:26:08;10.40;;;2.35;;
69057;SDS011;56128;37.534;-122.308;2024-03-17T02:28:42;9.48;;;2.28;;
69057;SDS011;56128;37.534;-122.308;2024-03-17T02:31:10;10.60;;;2.42;;
69057;SDS011;56128;37.534;-122.308;2024-03-17T02:33:38;11.23;;;3.00;;
69057;SDS011;56128;37.534;-122.308;2024-03-17T02:36:05;12.98;;;2.67;;
69057;SDS011;56128;37.534;-122.308;2024-03-17T02:38:33;14.73;;;3.20;;
69057;SDS011;56128;37.534;-122.308;2024-03-17T02:41:18;13.48;;;2.78;;
69057;SDS011;56128;37.534;-122.308;2024-03-17T02:43:45;13.52;;;2.40;;
69057;SDS011;56128;37.534;-122.308;2024-03-17T02:46:13;13.90;;;2.33;;
69057;SDS011;56128;37.534;-122.308;2024-03-17T02:48:44;13.13;;;2.60;;
69057;SDS011;56128;37.534;-122.308;2024-03-17T02:51:16;15.37;;;2.67;;
69057;SDS011;56128;37.534;-122.308;2024-03-17T02:53:45;12.38;;;2.75;;
69057;SDS011;56128;37.534;-122.308;2024-03-17T02:56:13;15.70;;;3.17;;
69057;SDS011;56128;37.534;-122.308;2024-03-17T02:58:44;14.45;;;2.65;;
69057;SDS011;56128;37.534;-122.308;2024-03-17T03:01:12;10.93;;;2.65;;
69057;SDS011;56128;37.534;-122.308;2024-03-17T03:03:40;10.88;;;2.50;;
69057;SDS011;56128;37.534;-122.308;2024-03-17T03:06:09;17.63;;;2.60;;
69057;SDS011;56128;37.534;-122.308;2024-03-17T03:08:40;12.43;;;2.55;;
69057;SDS011;56128;37.534;-122.308;2024-03-17T03:11:08;10.35;;;2.65;;
69057;SDS011;56128;37.534;-122.308;2024-03-17T03:13:38;9.93;;;2.83;;
69057;SDS011;56128;37.534;-122.308;2024-03-17T03:16:09;11.73;;;2.45;;
69057;SDS011;56128;37.534;-122.308;2024-03-17T03:18:37;15.23;;;3.20;;
69057;SDS011;56128;37.534;-122.308;2024-03-17T03:21:05;13.43;;;2.90;;
69057;SDS011;56128;37.534;-122.308;2024-03-17T03:23:32;9.82;;;2.28;;
69057;SDS011;56128;37.534;-122.308;2024-03-17T03:26:00;17.13;;;2.58;;
69057;SDS011;56128;37.534;-122.308;2024-03-17T03:28:28;10.85;;;2.78;;
69057;SDS011;56128;37.534;-122.308;2024-03-17T03:30:56;12.40;;;2.42;;
69057;SDS011;56128;37.534;-122.308;2024-03-17T03:33:23;12.13;;;2.40;;
69057;SDS011;56128;37.534;-122.308;2024-03-17T03:35:50;15.10;;;2.88;;
69057;SDS011;56128;37.534;-122.308;2024-03-17T03:38:17;10.35;;;2.10;;
69057;SDS011;56128;37.534;-122.308;2024-03-17T03:40:47;13.73;;;2.90;;
69057;SDS011;56128;37.534;-122.308;2024-03-17T03:43:14;12.25;;;2.70;;
69057;SDS011;56128;37.534;-122.308;2024-03-17T03:45:42;13.13;;;2.63;;
69057;SDS011;56128;37.534;-122.308;2024-03-17T03:48:08;14.80;;;2.47;;
69057;SDS011;56128;37.534;-122.308;2024-03-17T03:50:36;11.73;;;2.38;;
69057;SDS011;56128;37.534;-122.308;2024-03-17T03:53:04;14.50;;;2.50;;
69057;SDS011;56128;37.534;-122.308;2024-03-17T03:55:33;12.75;;;2.63;;
69057;SDS011;56128;37.534;-122.308;2024-03-17T03:58:05;15.48;;;3.20;;
69057;SDS011;56128;37.534;-122.308;2024-03-17T04:00:31;10.70;;;2.55;;
69057;SDS011;56128;37.534;-122.308;2024-03-17T04:02:57;12.23;;;2.72;;
69057;SDS011;56128;37.534;-122.308;2024-03-17T04:05:25;11.88;;;2.58;;
69057;SDS011;56128;37.534;-122.308;2024-03-17T04:07:52;11.73;;;2.75;;
69057;SDS011;56128;37.534;-122.308;2024-03-17T04:10:18;15.07;;;3.50;;
69057;SDS011;56128;37.534;-122.308;2024-03-17T04:12:46;9.73;;;2.38;;
69057;SDS011;56128;37.534;-122.308;2024-03-17T04:15:13;16.67;;;3.05;;
69057;SDS011;56128;37.534;-122.308;2024-03-17T04:17:39;10.00;;;2.42;;
69057;SDS011;56128;37.534;-122.308;2024-03-17T04:20:07;13.90;;;3.08;;
69057;SDS011;56128;37.534;-122.308;2024-03-17T04:22:36;13.23;;;3.05;;
69057;SDS011;56128;37.534;-122.308;2024-03-17T04:25:02;12.00;;;2.63;;
69057;SDS011;56128;37.534;-122.308;2024-03-17T04:27:29;12.75;;;2.88;;
69057;SDS011;56128;37.534;-122.308;2024-03-17T04:29:56;11.98;;;2.67;;
69057;SDS011;56128;37.534;-122.308;2024-03-17T04:32:24;10.77;;;2.83;;
69057;SDS011;56128;37.534;-122.308;2024-03-17T04:34:54;16.10;;;3.30;;
69057;SDS011;56128;37.534;-122.308;2024-03-17T04:37:20;13.50;;;2.72;;
69057;SDS011;56128;37.534;-122.308;2024-03-17T04:39:47;20.75;;;4.18;;
69057;SDS011;56128;37.534;-122.308;2024-03-17T04:42:15;11.25;;;2.67;;
69057;SDS011;56128;37.534;-122.308;2024-03-17T04:44:44;18.70;;;3.50;;
69057;SDS011;56128;37.534;-122.308;2024-03-17T04:47:11;14.85;;;2.80;;
69057;SDS011;56128;37.534;-122.308;2024-03-17T04:49:41;13.73;;;2.65;;
69057;SDS011;56128;37.534;-122.308;2024-03-17T04:52:12;16.80;;;3.17;;
69057;SDS011;56128;37.534;-122.308;2024-03-17T04:54:38;15.48;;;2.60;;
69057;SDS011;56128;37.534;-122.308;2024-03-17T04:57:08;18.65;;;3.88;;
69057;SDS011;56128;37.534;-122.308;2024-03-17T04:59:34;12.75;;;2.90;;
69057;SDS011;56128;37.534;-122.308;2024-03-17T05:02:01;12.63;;;3.10;;
69057;SDS011;56128;37.534;-122.308;2024-03-17T05:04:28;14.05;;;3.17;;
69057;SDS011;56128;37.534;-122.308;2024-03-17T05:06:55;12.15;;;2.88;;
69057;SDS011;56128;37.534;-122.308;2024-03-17T05:09:22;21.73;;;3.20;;
69057;SDS011;56128;37.534;-122.308;2024-03-17T05:11:49;16.65;;;3.00;;
69057;SDS011;56128;37.534;-122.308;2024-03-17T05:14:19;13.85;;;2.55;;
69057;SDS011;56128;37.534;-122.308;2024-03-17T05:16:49;14.10;;;3.10;;
69057;SDS011;56128;37.534;-122.308;2024-03-17T05:19:16;15.05;;;3.00;;
69057;SDS011;56128;37.534;-122.308;2024-03-17T05:21:43;17.02;;;3.05;;
69057;SDS011;56128;37.534;-122.308;2024-03-17T05:24:10;13.25;;;2.97;;
69057;SDS011;56128;37.534;-122.308;2024-03-17T05:26:37;13.95;;;2.95;;
69057;SDS011;56128;37.534;-122.308;2024-03-17T05:29:04;15.38;;;3.67;;
69057;SDS011;56128;37.534;-122.308;2024-03-17T05:31:30;15.65;;;2.45;;
69057;SDS011;56128;37.534;-122.308;2024-03-17T05:33:57;18.50;;;3.30;;
69057;SDS011;56128;37.534;-122.308;2024-03-17T05:36:23;13.50;;;3.50;;
69057;SDS011;56128;37.534;-122.308;2024-03-17T05:38:49;12.63;;;3.70;;
69057;SDS011;56128;37.534;-122.308;2024-03-17T05:41:15;16.33;;;2.97;;
69057;SDS011;56128;37.534;-122.308;2024-03-17T05:43:41;12.02;;;2.90;;
69057;SDS011;56128;37.534;-122.308;2024-03-17T05:46:08;15.73;;;3.45;;
69057;SDS011;56128;37.534;-122.308;2024-03-17T05:48:41;12.15;;;2.80;;
69057;SDS011;56128;37.534;-122.308;2024-03-17T05:51:07;18.52;;;3.00;;
69057;SDS011;56128;37.534;-122.308;2024-03-17T05:53:36;12.93;;;2.80;;
69057;SDS011;56128;37.534;-122.308;2024-03-17T05:56:05;17.10;;;3.15;;
69057;SDS011;56128;37.534;-122.308;2024-03-17T05:58:36;18.02;;;3.20;;
69057;SDS011;56128;37.534;-122.308;2024-03-17T06:01:03;15.35;;;3.28;;
69057;SDS011;56128;37.534;-122.308;2024-03-17T06:03:30;15.52;;;3.05;;
69057;SDS011;56128;37.534;-122.308;2024-03-17T06:05:58;14.38;;;3.17;;
69057;SDS011;56128;37.534;-122.308;2024-03-17T06:08:25;13.43;;;3.47;;
69057;SDS011;56128;37.534;-122.308;2024-03-17T06:10:51;17.73;;;3.60;;
69057;SDS011;56128;37.534;-122.308;2024-03-17T06:13:17;16.13;;;3.10;;
69057;SDS011;56128;37.534;-122.308;2024-03-17T06:15:44;12.75;;;2.97;;
69057;SDS011;56128;37.534;-122.308;2024-03-17T06:18:12;18.60;;;3.00;;
69057;SDS011;56128;37.534;-122.308;2024-03-17T06:20:40;16.25;;;3.13;;
69057;SDS011;56128;37.534;-122.308;2024-03-17T06:23:10;14.18;;;2.85;;
69057;SDS011;56128;37.534;-122.308;2024-03-17T06:25:40;22.38;;;3.47;;
69057;SDS011;56128;37.534;-122.308;2024-03-17T06:28:08;18.75;;;2.97;;
69057;SDS011;56128;37.534;-122.308;2024-03-17T06:30:42;18.55;;;2.95;;
69057;SDS011;56128;37.534;-122.308;2024-03-17T06:33:19;14.43;;;2.80;;
69057;SDS011;56128;37.534;-122.308;2024-03-17T06:35:46;12.23;;;2.70;;
69057;SDS011;56128;37.534;-122.308;2024-03-17T06:38:13;19.33;;;3.00;;
69057;SDS011;56128;37.534;-122.308;2024-03-17T06:40:40;16.45;;;2.90;;
69057;SDS011;56128;37.534;-122.308;2024-03-17T06:43:07;18.05;;;3.58;;
69057;SDS011;56128;37.534;-122.308;2024-03-17T06:45:33;15.48;;;2.85;;
69057;SDS011;56128;37.534;-122.308;2024-03-17T06:48:00;19.90;;;3.90;;
69057;SDS011;56128;37.534;-122.308;2024-03-17T06:50:26;11.77;;;2.70;;
69057;SDS011;56128;37.534;-122.308;2024-03-17T06:52:52;17.63;;;3.38;;
69057;SDS011;56128;37.534;-122.308;2024-03-17T06:55:18;15.05;;;3.38;;
69057;SDS011;56128;37.534;-122.308;2024-03-17T06:57:46;20.67;;;3.45;;
69057;SDS011;56128;37.534;-122.308;2024-03-17T07:00:13;20.05;;;3.65;;
69057;SDS011;56128;37.534;-122.308;2024-03-17T07:02:41;17.42;;;3.20;;
69057;SDS011;56128;37.534;-122.308;2024-03-17T07:05:14;20.27;;;3.53;;
69057;SDS011;56128;37.534;-122.308;2024-03-17T07:07:41;14.00;;;3.50;;
69057;SDS011;56128;37.534;-122.308;2024-03-17T07:10:07;13.02;;;3.10;;
69057;SDS011;56128;37.534;-122.308;2024-03-17T07:12:36;19.55;;;3.65;;
69057;SDS011;56128;37.534;-122.308;2024-03-17T07:15:03;18.73;;;3.05;;
69057;SDS011;56128;37.534;-122.308;2024-03-17T07:17:29;19.95;;;3.65;;
69057;SDS011;56128;37.534;-122.308;2024-03-17T07:19:55;23.60;;;3.50;;
69057;SDS011;56128;37.534;-122.308;2024-03-17T07:22:21;20.23;;;3.42;;
69057;SDS011;56128;37.534;-122.308;2024-03-17T07:24:48;18.17;;;3.83;;
69057;SDS011;56128;37.534;-122.308;2024-03-17T07:27:20;16.55;;;3.38;;
69057;SDS011;56128;37.534;-122.308;2024-03-17T07:29:46;14.40;;;3.13;;
69057;SDS011;56128;37.534;-122.308;2024-03-17T07:32:13;16.08;;;3.13;;
69057;SDS011;56128;37.534;-122.308;2024-03-17T07:34:39;17.30;;;3.72;;
69057;SDS011;56128;37.534;-122.308;2024-03-17T07:37:05;14.38;;;3.58;;
69057;SDS011;56128;37.534;-122.308;2024-03-17T07:39:32;17.52;;;4.30;;
69057;SDS011;56128;37.534;-122.308;2024-03-17T07:41:58;16.45;;;3.33;;
69057;SDS011;56128;37.534;-122.308;2024-03-17T07:44:27;24.35;;;4.32;;
69057;SDS011;56128;37.534;-122.308;2024-03-17T07:47:02;15.53;;;3.20;;
69057;SDS011;56128;37.534;-122.308;2024-03-17T07:49:32;23.50;;;3.50;;
69057;SDS011;56128;37.534;-122.308;2024-03-17T07:51:58;22.05;;;3.45;;
69057;SDS011;56128;37.534;-122.308;2024-03-17T07:54:25;15.60;;;3.17;;
69057;SDS011;56128;37.534;-122.308;2024-03-17T07:56:51;16.92;;;3.83;;
69057;SDS011;56128;37.534;-122.308;2024-03-17T07:59:18;22.13;;;3.88;;
69057;SDS011;56128;37.534;-122.308;2024-03-17T08:01:44;18.38;;;3.47;;
69057;SDS011;56128;37.534;-122.308;2024-03-17T08:04:11;20.75;;;4.03;;
69057;SDS011;56128;37.534;-122.308;2024-03-17T08:06:40;20.15;;;3.25;;
69057;SDS011;56128;37.534;-122.308;2024-03-17T08:09:07;18.95;;;3.75;;
69057;SDS011;56128;37.534;-122.308;2024-03-17T08:11:37;14.50;;;3.42;;
69057;SDS011;56128;37.534;-122.308;2024-03-17T08:14:08;21.65;;;3.72;;
69057;SDS011;56128;37.534;-122.308;2024-03-17T08:16:35;18.33;;;3.00;;
69057;SDS011;56128;37.534;-122.308;2024-03-17T08:19:01;24.60;;;3.78;;
69057;SDS011;56128;37.534;-122.308;2024-03-17T08:21:28;21.63;;;3.45;;
69057;SDS011;56128;37.534;-122.308;2024-03-17T08:23:55;17.58;;;3.53;;
69057;SDS011;56128;37.534;-122.308;2024-03-17T08:26:21;13.90;;;3.22;;
69057;SDS011;56128;37.534;-122.308;2024-03-17T08:28:47;13.15;;;3.08;;
69057;SDS011;56128;37.534;-122.308;2024-03-17T08:31:14;19.35;;;3.63;;
69057;SDS011;56128;37.534;-122.308;2024-03-17T08:33:43;17.52;;;3.75;;
69057;SDS011;56128;37.534;-122.308;2024-03-17T08:36:09;14.05;;;3.42;;
69057;SDS011;56128;37.534;-122.308;2024-03-17T08:38:36;16.92;;;3.10;;
69057;SDS011;56128;37.534;-122.308;2024-03-17T08:41:07;13.55;;;2.80;;
69057;SDS011;56128;37.534;-122.308;2024-03-17T08:43:35;14.50;;;3.00;;
69057;SDS011;56128;37.534;-122.308;2024-03-17T08:46:04;13.50;;;2.88;;
69057;SDS011;56128;37.534;-122.308;2024-03-17T08:48:32;13.77;;;2.72;;
69057;SDS011;56128;37.534;-122.308;2024-03-17T08:51:00;11.30;;;2.60;;
69057;SDS011;56128;37.534;-122.308;2024-03-17T08:53:27;8.30;;;2.75;;
69057;SDS011;56128;37.534;-122.308;2024-03-17T08:55:54;10.15;;;2.95;;
69057;SDS011;56128;37.534;-122.308;2024-03-17T08:58:21;9.63;;;2.65;;
69057;SDS011;56128;37.534;-122.308;2024-03-17T09:00:48;11.77;;;2.63;;
69057;SDS011;56128;37.534;-122.308;2024-03-17T09:03:14;9.20;;;2.38;;
69057;SDS011;56128;37.534;-122.308;2024-03-17T09:05:43;12.55;;;2.70;;
69057;SDS011;56128;37.534;-122.308;2024-03-17T09:08:19;13.00;;;2.45;;
69057;SDS011;56128;37.534;-122.308;2024-03-17T09:10:47;12.02;;;2.60;;
69057;SDS011;56128;37.534;-122.308;2024-03-17T09:13:18;19.65;;;3.30;;
69057;SDS011;56128;37.534;-122.308;2024-03-17T09:15:55;12.35;;;2.55;;
69057;SDS011;56128;37.534;-122.308;2024-03-17T09:18:25;7.05;;;2.35;;
69057;SDS011;56128;37.534;-122.308;2024-03-17T09:21:01;12.80;;;3.63;;
69057;SDS011;56128;37.534;-122.308;2024-03-17T09:23:30;9.05;;;2.33;;
69057;SDS011;56128;37.534;-122.308;2024-03-17T09:26:06;8.85;;;2.85;;
69057;SDS011;56128;37.534;-122.308;2024-03-17T09:28:43;15.00;;;2.35;;
69057;SDS011;56128;37.534;-122.308;2024-03-17T09:31:09;10.50;;;2.58;;
69057;SDS011;56128;37.534;-122.308;2024-03-17T09:33:37;14.60;;;2.42;;
69057;SDS011;56128;37.534;-122.308;2024-03-17T09:36:06;10.90;;;2.50;;
69057;SDS011;56128;37.534;-122.308;2024-03-17T09:38:34;11.20;;;2.42;;
69057;SDS011;56128;37.534;-122.308;2024-03-17T09:41:01;8.38;;;2.47;;
69057;SDS011;56128;37.534;-122.308;2024-03-17T09:43:28;10.45;;;2.70;;
69057;SDS011;56128;37.534;-122.308;2024-03-17T09:45:57;14.13;;;3.35;;
69057;SDS011;56128;37.534;-122.308;2024-03-17T09:48:24;12.35;;;2.70;;
69057;SDS011;56128;37.534;-122.308;2024-03-17T09:51:01;17.90;;;2.65;;
69057;SDS011;56128;37.534;-122.308;2024-03-17T09:53:29;8.88;;;2.40;;
69057;SDS011;56128;37.534;-122.308;2024-03-17T09:56:03;11.93;;;2.85;;
69057;SDS011;56128;37.534;-122.308;2024-03-17T09:58:41;12.55;;;2.92;;
69057;SDS011;56128;37.534;-122.308;2024-03-17T10:01:08;12.50;;;2.95;;
69057;SDS011;56128;37.534;-122.308;2024-03-17T10:03:55;9.43;;;2.55;;
69057;SDS011;56128;37.534;-122.308;2024-03-17T10:06:21;11.90;;;2.97;;
69057;SDS011;56128;37.534;-122.308;2024-03-17T10:08:49;12.35;;;3.08;;
69057;SDS011;56128;37.534;-122.308;2024-03-17T10:11:23;10.50;;;2.90;;
69057;SDS011;56128;37.534;-122.308;2024-03-17T10:16:33;14.18;;;3.00;;
69057;SDS011;56128;37.534;-122.308;2024-03-17T10:21:49;13.90;;;2.60;;
69057;SDS011;56128;37.534;-122.308;2024-03-17T10:26:53;13.43;;;3.08;;
69057;SDS011;56128;37.534;-122.308;2024-03-17T10:29:21;14.07;;;2.90;;
69057;SDS011;56128;37.534;-122.308;2024-03-17T10:31:59;11.93;;;2.88;;
69057;SDS011;56128;37.534;-122.308;2024-03-17T10:34:30;11.45;;;2.60;;
69057;SDS011;56128;37.534;-122.308;2024-03-17T10:39:38;11.00;;;3.30;;
69057;SDS011;56128;37.534;-122.308;2024-03-17T10:42:06;10.70;;;2.58;;
69057;SDS011;56128;37.534;-122.308;2024-03-17T10:44:40;11.45;;;2.75;;
69057;SDS011;56128;37.534;-122.308;2024-03-17T10:47:17;16.08;;;2.95;;
69057;SDS011;56128;37.534;-122.308;2024-03-17T10:49:47;11.95;;;2.90;;
69057;SDS011;56128;37.534;-122.308;2024-03-17T10:52:17;12.63;;;3.60;;
69057;SDS011;56128;37.534;-122.308;2024-03-17T10:54:46;14.57;;;3.10;;
69057;SDS011;56128;37.534;-122.308;2024-03-17T10:57:24;14.27;;;3.08;;
69057;SDS011;56128;37.534;-122.308;2024-03-17T11:00:02;15.55;;;2.97;;
69057;SDS011;56128;37.534;-122.308;2024-03-17T11:02:31;10.52;;;3.22;;
69057;SDS011;56128;37.534;-122.308;2024-03-17T11:04:59;13.75;;;3.25;;
69057;SDS011;56128;37.534;-122.308;2024-03-17T11:07:27;13.25;;;3.00;;
69057;SDS011;56128;37.534;-122.308;2024-03-17T11:09:56;13.70;;;3.15;;
69057;SDS011;56128;37.534;-122.308;2024-03-17T11:18:27;21.13;;;3.60;;
69057;SDS011;56128;37.534;-122.308;2024-03-17T11:20:56;20.25;;;3.72;;
69057;SDS011;56128;37.534;-122.308;2024-03-17T11:23:30;13.95;;;3.65;;
69057;SDS011;56128;37.534;-122.308;2024-03-17T11:25:57;17.95;;;3.60;;
69057;SDS011;56128;37.534;-122.308;2024-03-17T11:34:25;17.88;;;3.60;;
69057;SDS011;56128;37.534;-122.308;2024-03-17T11:36:52;15.82;;;3.50;;
69057;SDS011;56128;37.534;-122.308;2024-03-17T11:39:32;17.52;;;3.60;;
69057;SDS011;56128;37.534;-122.308;2024-03-17T11:42:23;21.35;;;4.43;;
69057;SDS011;56128;37.534;-122.308;2024-03-17T11:44:58;18.15;;;4.07;;
69057;SDS011;56128;37.534;-122.308;2024-03-17T11:47:46;18.10;;;3.95;;
69057;SDS011;56128;37.534;-122.308;2024-03-17T11:50:13;18.85;;;3.58;;
69057;SDS011;56128;37.534;-122.308;2024-03-17T11:52:41;13.38;;;3.45;;
69057;SDS011;56128;37.534;-122.308;2024-03-17T11:55:16;15.15;;;3.67;;
69057;SDS011;56128;37.534;-122.308;2024-03-17T11:57:43;20.92;;;4.70;;
69057;SDS011;56128;37.534;-122.308;2024-03-17T12:00:20;17.60;;;4.07;;
69057;SDS011;56128;37.534;-122.308;2024-03-17T12:02:49;29.05;;;4.30;;
69057;SDS011;56128;37.534;-122.308;2024-03-17T12:05:15;19.80;;;4.10;;
69057;SDS011;56128;37.534;-122.308;2024-03-17T12:07:42;20.50;;;4.80;;
69057;SDS011;56128;37.534;-122.308;2024-03-17T12:10:11;16.13;;;4.13;;
69057;SDS011;56128;37.534;-122.308;2024-03-17T12:12:39;15.27;;;4.10;;
69057;SDS011;56128;37.534;-122.308;2024-03-17T12:15:15;16.08;;;4.00;;
69057;SDS011;56128;37.534;-122.308;2024-03-17T12:17:45;21.17;;;3.85;;
69057;SDS011;56128;37.534;-122.308;2024-03-17T12:20:18;15.45;;;4.55;;
69057;SDS011;56128;37.534;-122.308;2024-03-17T12:22:45;17.13;;;3.88;;
69057;SDS011;56128;37.534;-122.308;2024-03-17T12:25:16;25.17;;;4.15;;
69057;SDS011;56128;37.534;-122.308;2024-03-17T12:27:46;16.55;;;4.22;;
69057;SDS011;56128;37.534;-122.308;2024-03-17T12:30:14;18.60;;;4.60;;
69057;SDS011;56128;37.534;-122.308;2024-03-17T12:32:41;20.15;;;4.32;;
69057;SDS011;56128;37.534;-122.308;2024-03-17T12:35:14;17.58;;;4.13;;
69057;SDS011;56128;37.534;-122.308;2024-03-17T12:37:43;17.25;;;3.90;;
69057;SDS011;56128;37.534;-122.308;2024-03-17T12:40:20;22.70;;;4.00;;
69057;SDS011;56128;37.534;-122.308;2024-03-17T12:42:49;20.30;;;4.40;;
69057;SDS011;56128;37.534;-122.308;2024-03-17T12:45:19;23.05;;;4.32;;
69057;SDS011;56128;37.534;-122.308;2024-03-17T12:47:47;20.40;;;4.57;;
69057;SDS011;56128;37.534;-122.308;2024-03-17T12:50:14;14.43;;;4.55;;
69057;SDS011;56128;37.534;-122.308;2024-03-17T12:52:40;18.80;;;4.38;;
69057;SDS011;56128;37.534;-122.308;2024-03-17T12:55:19;19.05;;;4.68;;
69057;SDS011;56128;37.534;-122.308;2024-03-17T13:00:59;16.73;;;4.75;;
69057;SDS011;56128;37.534;-122.308;2024-03-17T13:03:27;20.75;;;4.85;;
69057;SDS011;56128;37.534;-122.308;2024-03-17T13:05:54;24.58;;;4.82;;
69057;SDS011;56128;37.534;-122.308;2024-03-17T13:08:21;18.13;;;4.50;;
69057;SDS011;56128;37.534;-122.308;2024-03-17T13:10:47;25.52;;;4.65;;
69057;SDS011;56128;37.534;-122.308;2024-03-17T13:13:13;24.25;;;4.88;;
69057;SDS011;56128;37.534;-122.308;2024-03-17T13:15:41;23.20;;;4.80;;
69057;SDS011;56128;37.534;-122.308;2024-03-17T13:18:09;18.33;;;4.70;;
69057;SDS011;56128;37.534;-122.308;2024-03-17T13:20:41;16.25;;;4.35;;
69057;SDS011;56128;37.534;-122.308;2024-03-17T13:23:07;18.80;;;4.75;;
69057;SDS011;56128;37.534;-122.308;2024-03-17T13:25:33;20.35;;;4.60;;
69057;SDS011;56128;37.534;-122.308;2024-03-17T13:28:02;20.02;;;5.22;;
69057;SDS011;56128;37.534;-122.308;2024-03-17T13:30:29;23.08;;;5.22;;
69057;SDS011;56128;37.534;-122.308;2024-03-17T13:32:56;23.63;;;5.63;;
69057;SDS011;56128;37.534;-122.308;2024-03-17T13:35:26;23.17;;;5.28;;
69057;SDS011;56128;37.534;-122.308;2024-03-17T13:37:57;14.00;;;4.68;;
69057;SDS011;56128;37.534;-122.308;2024-03-17T13:40:29;23.85;;;5.00;;
69057;SDS011;56128;37.534;-122.308;2024-03-17T13:42:56;24.38;;;5.20;;
69057;SDS011;56128;37.534;-122.308;2024-03-17T13:45:23;29.17;;;6.10;;
69057;SDS011;56128;37.534;-122.308;2024-03-17T13:50:24;21.60;;;5.18;;
69057;SDS011;56128;37.534;-122.308;2024-03-17T13:52:51;25.10;;;5.28;;
69057;SDS011;56128;37.534;-122.308;2024-03-17T13:55:21;32.13;;;4.97;;
69057;SDS011;56128;37.534;-122.308;2024-03-17T13:57:54;24.70;;;5.38;;
69057;SDS011;56128;37.534;-122.308;2024-03-17T14:00:25;19.77;;;5.10;;
69057;SDS011;56128;37.534;-122.308;2024-03-17T14:02:53;19.42;;;4.88;;
69057;SDS011;56128;37.534;-122.308;2024-03-17T14:05:21;23.17;;;5.15;;
69057;SDS011;56128;37.534;-122.308;2024-03-17T14:07:49;19.77;;;5.25;;
69057;SDS011;56128;37.534;-122.308;2024-03-17T14:10:18;19.73;;;5.20;;
69057;SDS011;56128;37.534;-122.308;2024-03-17T14:12:45;20.67;;;4.82;;
69057;SDS011;56128;37.534;-122.308;2024-03-17T14:15:12;21.27;;;4.93;;
69057;SDS011;56128;37.534;-122.308;2024-03-17T14:17:39;18.80;;;5.32;;
69057;SDS011;56128;37.534;-122.308;2024-03-17T14:20:07;22.35;;;5.70;;
69057;SDS011;56128;37.534;-122.308;2024-03-17T14:22:38;23.67;;;5.70;;
69057;SDS011;56128;37.534;-122.308;2024-03-17T14:25:06;19.90;;;5.38;;
69057;SDS011;56128;37.534;-122.308;2024-03-17T14:27:35;21.27;;;5.82;;
69057;SDS011;56128;37.534;-122.308;2024-03-17T14:30:02;20.20;;;5.00;;
69057;SDS011;56128;37.534;-122.308;2024-03-17T14:32:29;19.63;;;5.32;;
69057;SDS011;56128;37.534;-122.308;2024-03-17T14:34:56;22.83;;;5.40;;